Time;durP1;ratioP1;P1;durP2;ratioP2;P2;SDS_P1;SDS_P2;PMS_P1;PMS_P2;Temp;Humidity;BMP_temperature;BMP_pressure;BME280_temperature;BME280_humidity;BME280_pressure;Samples;Min_cycle;Max_cycle;Signal;HPM_P1;HPM_P2
2021/06/07 00:01:53;;;;;;;;;;;;;;;23.73;58.67;99674.13;5090323;28;19992;-48
2021/06/07 00:04:18;;;;;;;;;;;;;;;23.52;59.15;99679.03;5090592;28;19912;-49
2021/06/07 00:06:43;;;;;;;;;;;;;;;23.60;58.49;99670.22;5090763;28;19912;-52
2021/06/07 00:09:09;;;;;;;;;;;;;;;23.63;58.85;99677.00;5090881;28;19978;-51
2021/06/07 00:11:35;;;;;;;;;;;;;;;23.61;59.27;99680.00;5090508;28;19912;-51
2021/06/07 00:14:02;;;;;;;;;;;;;;;23.58;60.22;99677.06;5090640;28;19977;-49
2021/06/07 00:16:27;;;;;;;;;;;;;;;23.55;59.64;99677.63;5090519;28;19927;-50
2021/06/07 00:18:52;;;;;;;;;;;;;;;23.55;59.60;99674.91;5090600;28;19912;-52
2021/06/07 00:21:19;;;;;;;;;;;;;;;23.65;59.28;99672.06;5090682;28;19918;-49
2021/06/07 00:23:45;;;;;;;;;;;;;;;23.69;59.68;99672.31;5110698;28;19922;-52
2021/06/07 00:26:10;;;;;;;;;;;;;;;23.62;59.79;99664.50;5110217;28;19911;-49
2021/06/07 00:28:36;;;;;;;;;;;;;;;23.42;59.29;99674.53;5109503;28;19912;-49
2021/06/07 00:31:01;;;;;;;;;;;;;;;23.45;59.50;99678.56;5110714;28;20434;-50
2021/06/07 00:33:26;;;;;;;;;;;;;;;23.45;60.37;99680.47;5110778;28;19977;-50
2021/06/07 00:35:52;;;;;;;;;;;;;;;23.56;60.06;99679.25;5110405;28;19916;-52
2021/06/07 00:38:17;;;;;;;;;;;;;;;23.56;59.71;99679.25;5109297;28;20335;-50
2021/06/07 00:40:42;;;;;;;;;;;;;;;23.61;59.34;99671.84;5110694;28;19912;-49
2021/06/07 00:43:08;;;;;;;;;;;;;;;23.70;59.15;99666.56;5110587;28;19919;-52
2021/06/07 00:45:34;;;;;;;;;;;;;;;23.67;58.71;99664.44;5110785;28;20358;-50
2021/06/07 00:47:59;;;;;;;;;;;;;;;23.57;58.88;99653.69;5110726;28;19969;-52
2021/06/07 00:50:30;;;;;;;;;;;;;;;23.58;58.72;99655.31;5110533;28;19919;-50
2021/06/07 00:53:03;;;;;;;;;;;;;;;23.57;59.05;99662.69;5110262;28;20440;-50
2021/06/07 00:55:29;;;;;;;;;;;;;;;23.51;59.71;99658.38;5110514;28;20057;-49
2021/06/07 00:57:55;;;;;;;;;;;;;;;23.60;59.18;99659.34;5110388;28;19930;-52
2021/06/07 01:00:21;;;;;;;;;;;;;;;23.70;58.77;99663.03;5110396;28;19912;-52
2021/06/07 01:02:46;;;;;;;;;;;;;;;23.78;58.41;99660.53;5110292;28;19959;-51
2021/06/07 01:05:12;;;;;;;;;;;;;;;23.81;58.32;99651.75;5110194;28;20000;-50
2021/06/07 01:07:37;;;;;;;;;;;;;;;23.72;58.40;99653.50;5110472;28;19912;-49
2021/06/07 01:10:02;;;;;;;;;;;;;;;23.70;58.22;99650.25;5108693;28;19922;-51
2021/06/07 01:12:28;;;;;;;;;;;;;;;23.52;58.71;99651.88;5089664;28;19931;-49
2021/06/07 01:14:53;;;;;;;;;;;;;;;23.45;59.05;99653.31;5089838;28;19916;-51
2021/06/07 01:17:18;;;;;;;;;;;;;;;23.48;58.97;99647.31;5089934;28;19920;-52
2021/06/07 01:19:43;;;;;;;;;;;;;;;23.54;58.86;99648.88;5089949;28;19924;-51
2021/06/07 01:22:09;;;;;;;;;;;;;;;23.54;59.00;99646.16;5097125;28;19918;-50
2021/06/07 01:24:34;;;;;;;;;;;;;;;23.53;58.96;99645.34;5110043;28;19911;-50
2021/06/07 01:26:59;;;;;;;;;;;;;;;23.53;58.85;99653.50;5108681;28;20006;-53
2021/06/07 01:29:25;;;;;;;;;;;;;;;23.54;59.21;99649.66;5110088;28;19912;-49
2021/06/07 01:31:50;;;;;;;;;;;;;;;23.53;59.11;99658.94;5109907;28;19969;-51
2021/06/07 01:34:15;;;;;;;;;;;;;;;23.58;58.68;99650.69;5108230;28;20035;-52
2021/06/07 01:36:40;;;;;;;;;;;;;;;23.52;58.55;99648.34;5108350;28;19952;-51
2021/06/07 01:39:06;;;;;;;;;;;;;;;23.55;59.03;99651.28;5109683;28;19915;-51
2021/06/07 01:41:31;;;;;;;;;;;;;;;23.56;58.30;99647.47;5109998;28;20221;-51
2021/06/07 01:43:56;;;;;;;;;;;;;;;23.48;58.99;99655.47;5110066;28;19973;-51
2021/06/07 01:46:21;;;;;;;;;;;;;;;23.36;59.19;99650.44;5110030;28;19912;-50
2021/06/07 01:48:47;;;;;;;;;;;;;;;23.38;58.85;99650.94;5111867;28;19960;-49
2021/06/07 01:51:12;;;;;;;;;;;;;;;23.43;58.74;99653.63;5113696;28;19912;-51
2021/06/07 01:53:38;;;;;;;;;;;;;;;23.46;59.04;99658.47;5113496;28;19923;-48
2021/06/07 01:56:04;;;;;;;;;;;;;;;23.48;59.02;99650.03;5112156;28;19912;-50
2021/06/07 01:58:30;;;;;;;;;;;;;;;23.55;58.55;99655.91;5112909;28;19918;-51
2021/06/07 02:00:58;;;;;;;;;;;;;;;23.50;59.06;99653.28;5113015;28;19916;-52
2021/06/07 02:03:23;;;;;;;;;;;;;;;23.54;59.11;99652.38;5113542;28;19943;-52
2021/06/07 02:05:50;;;;;;;;;;;;;;;23.52;58.86;99660.00;5113080;28;20497;-51
2021/06/07 02:08:15;;;;;;;;;;;;;;;23.52;58.19;99656.50;5113465;28;20001;-50
2021/06/07 02:10:42;;;;;;;;;;;;;;;23.48;57.81;99658.19;5107665;28;19944;-51
2021/06/07 02:13:07;;;;;;;;;;;;;;;23.48;57.59;99656.28;5093228;28;20020;-48
2021/06/07 02:15:32;;;;;;;;;;;;;;;23.18;58.07;99660.97;5093130;28;20041;-52
2021/06/07 02:18:01;;;;;;;;;;;;;;;23.32;57.90;99662.97;5092860;28;19977;-53
2021/06/07 02:20:27;;;;;;;;;;;;;;;23.40;57.76;99670.50;5092944;28;19920;-49
2021/06/07 02:22:52;;;;;;;;;;;;;;;23.42;57.71;99663.66;5106192;28;19912;-48
2021/06/07 02:25:18;;;;;;;;;;;;;;;23.38;57.68;99661.81;5113127;28;20359;-51
2021/06/07 02:27:44;;;;;;;;;;;;;;;23.45;57.43;99656.84;5113072;28;19923;-51
2021/06/07 02:30:10;;;;;;;;;;;;;;;23.37;57.70;99661.00;5113121;28;20085;-51
2021/06/07 02:32:35;;;;;;;;;;;;;;;23.35;57.86;99660.50;5113173;28;19923;-52
2021/06/07 02:35:01;;;;;;;;;;;;;;;23.36;57.94;99662.13;5112974;28;20010;-51
2021/06/07 02:37:26;;;;;;;;;;;;;;;23.19;58.16;99662.59;5112961;28;19912;-50
2021/06/07 02:39:52;;;;;;;;;;;;;;;23.22;58.04;99653.84;5112849;28;20430;-50
2021/06/07 02:42:17;;;;;;;;;;;;;;;23.25;57.49;99662.50;5112863;28;19911;-52
2021/06/07 02:44:42;;;;;;;;;;;;;;;23.07;57.82;99661.38;5111590;28;19941;-51
2021/06/07 02:47:08;;;;;;;;;;;;;;;23.14;57.24;99657.22;5112692;28;19912;-53
2021/06/07 02:49:33;;;;;;;;;;;;;;;23.29;57.19;99669.81;5112799;28;19922;-53
2021/06/07 02:51:58;;;;;;;;;;;;;;;23.34;56.76;99661.59;5112460;28;19984;-50
2021/06/07 02:54:23;;;;;;;;;;;;;;;23.40;56.74;99667.78;5112644;28;19926;-50
2021/06/07 02:56:49;;;;;;;;;;;;;;;23.44;56.71;99666.09;5112613;28;19915;-52
2021/06/07 02:59:14;;;;;;;;;;;;;;;23.36;56.81;99659.41;5112488;28;20003;-51
2021/06/07 03:01:39;;;;;;;;;;;;;;;23.41;56.71;99664.75;5104484;28;19923;-51
2021/06/07 03:04:05;;;;;;;;;;;;;;;23.38;56.65;99667.25;5091990;28;19916;-50
2021/06/07 03:06:30;;;;;;;;;;;;;;;23.37;56.95;99662.94;5091873;28;19912;-51
2021/06/07 03:08:55;;;;;;;;;;;;;;;23.46;57.30;99668.53;5091976;28;19916;-51
2021/06/07 03:11:21;;;;;;;;;;;;;;;23.54;57.05;99662.44;5091829;28;19919;-52
2021/06/07 03:13:46;;;;;;;;;;;;;;;23.41;57.50;99672.09;5091824;28;19953;-52
2021/06/07 03:16:11;;;;;;;;;;;;;;;23.38;57.51;99664.53;5091264;28;19978;-51
2021/06/07 03:18:37;;;;;;;;;;;;;;;23.45;57.24;99664.19;5091981;28;19912;-50
2021/06/07 03:21:02;;;;;;;;;;;;;;;23.48;57.19;99669.06;5091547;28;19935;-49
2021/06/07 03:23:29;;;;;;;;;;;;;;;23.45;57.14;99666.91;5109817;28;19912;-49
2021/06/07 03:25:54;;;;;;;;;;;;;;;23.28;58.36;99662.75;5111936;28;19990;-52
2021/06/07 03:28:19;;;;;;;;;;;;;;;23.15;59.36;99667.00;5111899;28;20429;-51
2021/06/07 03:30:45;;;;;;;;;;;;;;;23.48;57.59;99669.06;5111201;28;19919;-49
2021/06/07 03:33:10;;;;;;;;;;;;;;;23.50;57.48;99669.56;5111115;28;20305;-51
2021/06/07 03:35:36;;;;;;;;;;;;;;;23.55;57.37;99674.91;5111003;28;20426;-52
2021/06/07 03:38:02;;;;;;;;;;;;;;;23.54;57.56;99674.09;5110919;28;19945;-52
2021/06/07 03:40:28;;;;;;;;;;;;;;;23.52;57.62;99675.50;5110309;28;19916;-53
2021/06/07 03:42:54;;;;;;;;;;;;;;;23.51;57.86;99677.41;5110010;28;19912;-51
2021/06/07 03:45:19;;;;;;;;;;;;;;;23.51;56.93;99649.44;5109995;28;19934;-50
2021/06/07 03:47:44;;;;;;;;;;;;;;;23.70;57.01;99679.34;5110093;28;20033;-52
2021/06/07 03:50:10;;;;;;;;;;;;;;;23.72;56.78;99675.25;5109912;28;20330;-49
2021/06/07 03:52:37;;;;;;;;;;;;;;;23.83;56.20;99686.00;5109544;28;20103;-48
2021/06/07 03:55:03;;;;;;;;;;;;;;;23.77;56.22;99685.22;5108679;28;19918;-52
2021/06/07 03:57:28;;;;;;;;;;;;;;;23.73;56.84;99686.91;5110619;28;19911;-51
2021/06/07 03:59:53;;;;;;;;;;;;;;;23.78;56.46;99682.25;5110483;28;19912;-52
2021/06/07 04:02:20;;;;;;;;;;;;;;;23.83;56.53;99678.66;5110450;28;19912;-51
2021/06/07 04:04:45;;;;;;;;;;;;;;;23.81;56.53;99683.56;5110249;28;19935;-50
2021/06/07 04:07:11;;;;;;;;;;;;;;;23.80;56.94;99685.47;5110228;28;19929;-49
2021/06/07 04:09:38;;;;;;;;;;;;;;;23.85;56.57;99689.22;5110599;28;19918;-52
2021/06/07 04:12:04;;;;;;;;;;;;;;;23.93;56.41;99691.28;5109977;28;19965;-51
2021/06/07 04:14:29;;;;;;;;;;;;;;;23.94;56.29;99699.13;5096101;28;19924;-51
2021/06/07 04:16:55;;;;;;;;;;;;;;;24.02;55.96;99686.00;5088281;28;20081;-52
2021/06/07 04:19:20;;;;;;;;;;;;;;;23.95;56.31;99695.34;5090157;28;20007;-49
2021/06/07 04:21:45;;;;;;;;;;;;;;;23.96;56.19;99696.13;5093943;28;19920;-51
2021/06/07 04:24:10;;;;;;;;;;;;;;;23.88;56.33;99699.50;5109729;28;19924;-52
2021/06/07 04:26:36;;;;;;;;;;;;;;;23.78;57.40;99701.28;5108502;28;20010;-52
2021/06/07 04:29:01;;;;;;;;;;;;;;;24.10;55.94;99698.91;5110134;28;19919;-51
2021/06/07 04:31:28;;;;;;;;;;;;;;;24.05;55.74;99677.28;5109827;28;20014;-51
2021/06/07 04:33:53;;;;;;;;;;;;;;;24.23;55.80;99705.53;5109450;28;19916;-52
2021/06/07 04:36:19;;;;;;;;;;;;;;;24.10;55.90;99699.72;5109437;28;19919;-49
2021/06/07 04:38:44;;;;;;;;;;;;;;;24.01;56.30;99709.66;5086242;28;20458;-53
2021/06/07 04:41:09;;;;;;;;;;;;;;;24.07;56.00;99704.97;5074083;28;19916;-50
2021/06/07 04:43:35;;;;;;;;;;;;;;;24.03;56.42;99710.16;5069302;28;19984;-50
2021/06/07 04:46:00;;;;;;;;;;;;;;;24.02;56.76;99708.53;5069292;28;19995;-49
2021/06/07 04:48:25;;;;;;;;;;;;;;;24.06;56.62;99708.75;5069201;28;19924;-52
2021/06/07 04:50:51;;;;;;;;;;;;;;;24.02;56.67;99713.97;5069327;28;19939;-50
2021/06/07 04:53:17;;;;;;;;;;;;;;;23.96;56.47;99707.81;5069010;28;19928;-50
2021/06/07 04:55:46;;;;;;;;;;;;;;;24.03;55.95;99720.22;5069618;28;19912;-51
2021/06/07 04:58:15;;;;;;;;;;;;;;;24.13;55.16;99711.94;5069317;28;19995;-52
2021/06/07 05:00:42;;;;;;;;;;;;;;;24.08;55.43;99717.44;5068964;28;19919;-50
2021/06/07 05:03:07;;;;;;;;;;;;;;;24.14;55.33;99721.69;5068737;28;20348;-49
2021/06/07 05:05:33;;;;;;;;;;;;;;;24.18;55.41;99723.53;5069159;28;19913;-53
2021/06/07 05:07:58;;;;;;;;;;;;;;;24.30;54.79;99714.94;5069202;28;19912;-52
2021/06/07 05:10:23;;;;;;;;;;;;;;;24.29;54.84;99721.44;5067660;28;19913;-50
2021/06/07 05:12:49;;;;;;;;;;;;;;;24.23;55.46;99721.84;5069165;28;20364;-53
2021/06/07 05:15:14;;;;;;;;;;;;;;;24.15;55.87;99721.41;5069606;28;19956;-51
2021/06/07 05:17:40;;;;;;;;;;;;;;;24.18;55.68;99722.72;5085446;28;20011;-48
2021/06/07 05:20:06;;;;;;;;;;;;;;;24.29;54.84;99721.44;5089332;28;20234;-50
2021/06/07 05:22:31;;;;;;;;;;;;;;;24.27;54.91;99715.50;5099395;28;20368;-51
2021/06/07 05:24:56;;;;;;;;;;;;;;;24.32;54.26;99728.22;5113660;28;19922;-52
2021/06/07 05:27:21;;;;;;;;;;;;;;;24.28;54.51;99729.94;5113730;28;19912;-50
2021/06/07 05:29:47;;;;;;;;;;;;;;;24.28;54.50;99728.00;5113578;28;19935;-53
2021/06/07 05:32:12;;;;;;;;;;;;;;;24.30;54.42;99731.25;5113729;28;20002;-53
2021/06/07 05:34:37;;;;;;;;;;;;;;;24.40;54.18;99725.63;5112858;28;20284;-54
2021/06/07 05:37:03;;;;;;;;;;;;;;;24.54;54.05;99736.63;5113620;28;20399;-51
2021/06/07 05:39:28;;;;;;;;;;;;;;;24.62;53.95;99737.03;5113405;28;20278;-51
2021/06/07 05:41:54;;;;;;;;;;;;;;;24.51;53.97;99748.06;5113300;27;19951;-48
2021/06/07 05:44:19;;;;;;;;;;;;;;;24.62;53.81;99737.84;5113078;28;19981;-51
2021/06/07 05:46:47;;;;;;;;;;;;;;;24.67;53.84;99739.66;5113308;28;19919;-51
2021/06/07 05:49:12;;;;;;;;;;;;;;;24.79;53.70;99742.75;5113005;28;19980;-52
2021/06/07 05:51:37;;;;;;;;;;;;;;;24.83;53.67;99746.47;5113539;28;20356;-51
2021/06/07 05:54:03;;;;;;;;;;;;;;;24.89;53.82;99741.75;5113434;27;19916;-49
2021/06/07 05:56:28;;;;;;;;;;;;;;;24.56;54.65;99747.19;5113363;28;19919;-52
2021/06/07 05:58:57;;;;;;;;;;;;;;;24.63;54.19;99746.81;5113417;28;20379;-50
2021/06/07 06:01:23;;;;;;;;;;;;;;;24.80;53.74;99752.50;5113032;28;20306;-49
2021/06/07 06:03:48;;;;;;;;;;;;;;;24.90;53.72;99749.63;5112850;28;20375;-50
2021/06/07 06:06:13;;;;;;;;;;;;;;;24.88;53.33;99748.28;5113107;28;19911;-50
2021/06/07 06:08:39;;;;;;;;;;;;;;;24.88;53.34;99749.09;5112831;28;19912;-52
2021/06/07 06:11:04;;;;;;;;;;;;;;;25.00;53.16;99753.25;5112961;28;19912;-52
2021/06/07 06:13:29;;;;;;;;;;;;;;;24.98;53.90;99748.13;5113108;28;19923;-51
2021/06/07 06:15:55;;;;;;;;;;;;;;;25.06;53.68;99752.06;5111184;28;19970;-50
2021/06/07 06:18:20;;;;;;;;;;;;;;;25.11;53.28;99750.06;5112718;28;20426;-53
2021/06/07 06:20:45;;;;;;;;;;;;;;;25.23;52.83;99746.88;5112835;28;20363;-50
2021/06/07 06:23:11;;;;;;;;;;;;;;;25.32;52.22;99747.81;5112922;28;20245;-51
2021/06/07 06:25:36;;;;;;;;;;;;;;;25.45;51.34;99750.81;5112962;28;19916;-48
2021/06/07 06:28:01;;;;;;;;;;;;;;;25.53;50.92;99744.66;5112943;28;19912;-49
2021/06/07 06:30:27;;;;;;;;;;;;;;;25.51;51.03;99746.88;5112703;28;19912;-51
2021/06/07 06:32:53;;;;;;;;;;;;;;;25.58;50.45;99752.75;5112551;28;20172;-50
2021/06/07 06:35:19;;;;;;;;;;;;;;;25.62;50.40;99744.78;5112005;28;19958;-49
2021/06/07 06:37:44;;;;;;;;;;;;;;;25.69;50.17;99737.81;5112576;28;20026;-48
2021/06/07 06:40:10;;;;;;;;;;;;;;;25.63;50.55;99746.41;5112011;28;20418;-49
2021/06/07 06:42:36;;;;;;;;;;;;;;;25.66;50.45;99741.13;5112101;28;19912;-50
2021/06/07 06:45:02;;;;;;;;;;;;;;;25.90;50.38;99737.38;5110773;28;19981;-50
2021/06/07 06:47:28;;;;;;;;;;;;;;;26.12;49.92;99737.44;5112284;28;19923;-49
2021/06/07 06:49:53;;;;;;;;;;;;;;;26.31;49.38;99737.28;5112167;28;19912;-51
2021/06/07 06:52:19;;;;;;;;;;;;;;;26.55;49.30;99738.91;5112241;28;19919;-49
2021/06/07 06:54:44;;;;;;;;;;;;;;;26.78;48.83;99744.38;5112116;28;19911;-49
2021/06/07 06:57:09;;;;;;;;;;;;;;;26.89;48.55;99741.06;5112168;28;19995;-48
2021/06/07 06:59:34;;;;;;;;;;;;;;;27.03;47.80;99749.16;5112159;28;19915;-51
2021/06/07 07:02:00;;;;;;;;;;;;;;;27.26;47.44;99739.06;5111845;28;19934;-52
2021/06/07 07:04:25;;;;;;;;;;;;;;;27.46;46.68;99745.06;5111996;27;19923;-52
2021/06/07 07:06:50;;;;;;;;;;;;;;;27.38;45.75;99749.38;5111789;28;19912;-52
2021/06/07 07:09:16;;;;;;;;;;;;;;;27.55;45.67;99734.97;5111737;28;19915;-49
2021/06/07 07:11:41;;;;;;;;;;;;;;;27.57;45.39;99738.19;5111637;28;19911;-50
2021/06/07 07:14:06;;;;;;;;;;;;;;;27.64;45.01;99741.25;5111020;27;20096;-50
2021/06/07 07:16:32;;;;;;;;;;;;;;;27.52;46.53;99743.78;5111266;28;19926;-49
2021/06/07 07:18:57;;;;;;;;;;;;;;;27.27;46.07;99751.56;5111511;28;19924;-51
2021/06/07 07:21:22;;;;;;;;;;;;;;;27.29;45.54;99752.06;5111090;28;19919;-49
2021/06/07 07:23:47;;;;;;;;;;;;;;;27.00;45.71;99741.63;5111498;28;19961;-51
2021/06/07 07:26:13;;;;;;;;;;;;;;;27.30;44.92;99753.69;5111386;28;20501;-51
2021/06/07 07:28:38;;;;;;;;;;;;;;;27.34;45.45;99751.13;5111176;28;19912;-51
2021/06/07 07:31:03;;;;;;;;;;;;;;;27.47;45.29;99747.50;5111089;28;19911;-50
2021/06/07 07:33:35;;;;;;;;;;;;;;;27.37;46.25;99755.16;5111149;28;19922;-51
2021/06/07 07:36:00;;;;;;;;;;;;;;;27.20;46.34;99756.66;5111282;28;19916;-50
2021/06/07 07:38:26;;;;;;;;;;;;;;;26.81;47.21;99752.75;5111126;28;19911;-49
2021/06/07 07:40:51;;;;;;;;;;;;;;;26.83;47.48;99745.06;5111430;28;19916;-51
2021/06/07 07:43:16;;;;;;;;;;;;;;;26.87;47.32;99753.44;5110943;28;19964;-52
2021/06/07 07:45:41;;;;;;;;;;;;;;;26.91;47.18;99752.47;5110161;28;19927;-49
2021/06/07 07:48:07;;;;;;;;;;;;;;;26.85;46.67;99758.41;5111137;28;20280;-51
2021/06/07 07:50:32;;;;;;;;;;;;;;;26.66;46.73;99753.94;5110920;28;19915;-52
2021/06/07 07:52:58;;;;;;;;;;;;;;;26.53;46.77;99757.50;5110963;28;19923;-52
2021/06/07 07:55:24;;;;;;;;;;;;;;;26.56;46.68;99758.81;5111043;28;19912;-50
2021/06/07 07:57:50;;;;;;;;;;;;;;;26.33;46.81;99754.16;5110325;28;19911;-53
2021/06/07 08:00:16;;;;;;;;;;;;;;;26.16;47.76;99758.63;5110403;28;19985;-51
2021/06/07 08:02:42;;;;;;;;;;;;;;;25.75;49.02;99761.09;5110602;28;20354;-52
2021/06/07 08:05:07;;;;;;;;;;;;;;;25.90;47.95;99759.97;5110796;28;20101;-50
2021/06/07 08:07:33;;;;;;;;;;;;;;;26.31;46.82;99759.13;5110501;28;19988;-49
2021/06/07 08:09:58;;;;;;;;;;;;;;;26.32;47.33;99757.19;5110443;28;19998;-53
2021/06/07 08:12:24;;;;;;;;;;;;;;;26.48;47.14;99760.34;5110170;28;19995;-51
2021/06/07 08:14:49;;;;;;;;;;;;;;;26.11;48.06;99762.28;5110165;28;19923;-51
2021/06/07 08:17:16;;;;;;;;;;;;;;;25.67;50.41;99764.53;5110168;28;19930;-51
2021/06/07 08:19:41;;;;;;;;;;;;;;;25.81;50.77;99764.53;5110531;28;19912;-51
2021/06/07 08:22:06;;;;;;;;;;;;;;;25.53;52.09;99747.38;5108424;28;19972;-50
2021/06/07 08:24:32;;;;;;;;;;;;;;;25.22;53.08;99764.28;5110291;28;19924;-52
2021/06/07 08:26:57;;;;;;;;;;;;;;;25.43;52.16;99770.19;5110480;28;19954;-51
2021/06/07 08:29:22;;;;;;;;;;;;;;;24.97;53.31;99768.28;5110538;28;20353;-52
2021/06/07 08:31:47;;;;;;;;;;;;;;;25.45;52.45;99767.16;5110211;28;19926;-51
2021/06/07 08:34:13;;;;;;;;;;;;;;;25.41;53.00;99769.69;5110143;28;20010;-52
2021/06/07 08:36:38;;;;;;;;;;;;;;;25.81;52.07;99774.63;5110100;28;19942;-51
2021/06/07 08:39:09;;;;;;;;;;;;;;;25.94;51.87;99780.09;5102103;28;19948;-52
2021/06/07 08:41:34;;;;;;;;;;;;;;;26.24;51.28;99766.91;5089839;28;19990;-52
2021/06/07 08:43:59;;;;;;;;;;;;;;;26.51;50.38;99770.66;5089670;28;20331;-52
2021/06/07 08:46:24;;;;;;;;;;;;;;;26.76;49.75;99763.78;5089890;28;20376;-51
2021/06/07 08:48:50;;;;;;;;;;;;;;;26.95;48.85;99769.06;5089979;28;20073;-52
2021/06/07 08:51:15;;;;;;;;;;;;;;;27.04;48.13;99772.66;5089899;28;19912;-52
2021/06/07 08:53:40;;;;;;;;;;;;;;;27.09;47.56;99771.69;5089974;28;20337;-50
2021/06/07 08:56:06;;;;;;;;;;;;;;;26.78;47.97;99766.22;5089820;28;19912;-50
2021/06/07 08:58:31;;;;;;;;;;;;;;;26.84;48.21;99773.16;5089737;28;20418;-52
2021/06/07 09:00:56;;;;;;;;;;;;;;;26.55;48.12;99763.47;5089837;28;19973;-51
2021/06/07 09:03:22;;;;;;;;;;;;;;;26.49;48.48;99767.44;5089639;28;19912;-52
2021/06/07 09:05:53;;;;;;;;;;;;;;;26.33;48.77;99766.97;5089354;28;19947;-49
2021/06/07 09:08:19;;;;;;;;;;;;;;;26.03;50.41;99769.28;5089507;28;19916;-51
2021/06/07 09:10:45;;;;;;;;;;;;;;;26.09;50.46;99759.06;5089267;28;20361;-52
2021/06/07 09:13:11;;;;;;;;;;;;;;;25.65;50.39;99738.72;5089398;28;19978;-52
2021/06/07 09:15:37;;;;;;;;;;;;;;;25.58;51.65;99766.34;5089297;28;19920;-52
2021/06/07 09:18:03;;;;;;;;;;;;;;;25.64;51.45;99754.25;5089106;28;19927;-52
2021/06/07 09:20:29;;;;;;;;;;;;;;;25.79;50.67;99746.88;5089498;28;19912;-50
2021/06/07 09:22:56;;;;;;;;;;;;;;;26.06;50.04;99751.50;5103544;28;19912;-52
2021/06/07 09:25:23;;;;;;;;;;;;;;;26.48;48.71;99730.34;5109752;28;19952;-52
2021/06/07 09:28:07;;;;;;;;;;;;;;;26.41;49.84;99746.34;5109034;28;19968;-52
2021/06/07 09:30:34;;;;;;;;;;;;;;;26.44;46.50;99745.72;5109607;28;20231;-51
2021/06/07 09:33:26;;;;;;;;;;;;;;;26.53;46.66;99743.88;5109730;28;19922;-52
2021/06/07 09:36:25;;;;;;;;;;;;;;;26.51;46.99;99737.91;5108717;28;19912;-51
2021/06/07 09:38:51;;;;;;;;;;;;;;;26.51;46.93;99743.38;5096974;28;20462;-51
2021/06/07 09:41:17;;;;;;;;;;;;;;;26.83;46.54;99736.06;5109605;28;19912;-52
2021/06/07 09:43:46;;;;;;;;;;;;;;;26.45;47.63;99731.78;5109368;28;20349;-53
2021/06/07 09:46:11;;;;;;;;;;;;;;;26.49;47.77;99735.50;5109303;28;19912;-52
2021/06/07 09:48:36;;;;;;;;;;;;;;;26.75;44.60;99729.44;5109488;28;19926;-52
2021/06/07 09:51:02;;;;;;;;;;;;;;;26.76;44.67;99722.84;5109066;28;19912;-52
2021/06/07 09:53:52;;;;;;;;;;;;;;;26.38;46.07;99725.94;5109498;28;20305;-52
2021/06/07 09:56:17;;;;;;;;;;;;;;;26.10;45.96;99717.88;5109564;28;19938;-49
2021/06/07 09:58:46;;;;;;;;;;;;;;;26.14;48.05;99716.13;5109831;28;20324;-52
2021/06/07 10:01:13;;;;;;;;;;;;;;;25.90;47.69;99715.56;5107990;28;19995;-52
2021/06/07 10:03:48;;;;;;;;;;;;;;;26.40;46.84;99720.19;5109571;28;19912;-52
2021/06/07 10:06:23;;;;;;;;;;;;;;;27.36;45.38;99715.28;5109702;28;20067;-52
2021/06/07 10:09:00;;;;;;;;;;;;;;;28.34;43.55;99703.06;5109574;28;19911;-52
2021/06/07 10:11:26;;;;;;;;;;;;;;;28.70;40.60;99718.34;5113002;28;20003;-52
2021/06/07 10:14:11;;;;;;;;;;;;;;;29.34;38.92;99706.53;5111928;28;19932;-48
2021/06/07 10:16:37;;;;;;;;;;;;;;;29.41;37.60;99704.06;5112893;28;20391;-50
2021/06/07 10:19:16;;;;;;;;;;;;;;;29.35;37.46;99696.38;5113276;28;19972;-51
2021/06/07 10:21:41;;;;;;;;;;;;;;;28.97;39.85;99703.44;5111251;28;20299;-52
2021/06/07 10:24:06;;;;;;;;;;;;;;;28.91;40.68;99701.22;5112631;28;20363;-49
2021/06/07 10:26:32;;;;;;;;;;;;;;;29.43;39.60;99690.03;5112962;28;19912;-52
2021/06/07 10:28:57;;;;;;;;;;;;;;;29.38;39.70;99701.19;5113004;28;20044;-50
2021/06/07 10:31:23;;;;;;;;;;;;;;;29.63;39.56;99694.75;5113300;28;19912;-51
2021/06/07 10:33:58;;;;;;;;;;;;;;;29.08;39.66;99697.59;5111068;28;19916;-50
2021/06/07 10:36:27;;;;;;;;;;;;;;;28.92;39.71;99695.41;5112631;28;20065;-53
2021/06/07 10:38:53;;;;;;;;;;;;;;;28.80;39.08;99700.75;5112132;28;19912;-52
2021/06/07 10:41:18;;;;;;;;;;;;;;;28.72;39.97;99704.31;5112096;28;19919;-51
2021/06/07 10:43:44;;;;;;;;;;;;;;;29.42;39.32;99705.69;5112106;28;19911;-50
2021/06/07 10:46:19;;;;;;;;;;;;;;;29.73;38.45;99701.00;5111687;28;19923;-49
2021/06/07 10:48:49;;;;;;;;;;;;;;;29.53;38.96;99702.53;5112045;28;19935;-51
2021/06/07 10:51:14;;;;;;;;;;;;;;;29.85;38.21;99701.06;5112173;28;19912;-49
2021/06/07 10:53:40;;;;;;;;;;;;;;;29.37;38.70;99694.09;5112178;28;19916;-50
2021/06/07 10:56:06;;;;;;;;;;;;;;;28.61;39.30;99698.38;5112262;28;20414;-50
2021/06/07 10:58:31;;;;;;;;;;;;;;;28.22;39.97;99691.97;5112261;28;19980;-50
2021/06/07 11:00:57;;;;;;;;;;;;;;;28.50;39.81;99697.88;5111997;28;20332;-49
2021/06/07 11:03:26;;;;;;;;;;;;;;;28.57;39.67;99700.97;5112286;28;20375;-51
2021/06/07 11:05:53;;;;;;;;;;;;;;;28.68;39.99;99698.69;5111829;28;19912;-50
2021/06/07 11:08:19;;;;;;;;;;;;;;;29.49;38.72;99691.44;5111653;28;20202;-50
2021/06/07 11:10:48;;;;;;;;;;;;;;;29.93;37.67;99688.44;5112011;28;20276;-51
2021/06/07 11:13:14;;;;;;;;;;;;;;;30.08;37.33;99689.78;5111945;28;19919;-52
2021/06/07 11:15:42;;;;;;;;;;;;;;;30.18;37.29;99694.88;5111776;28;19915;-49
2021/06/07 11:18:26;;;;;;;;;;;;;;;30.26;36.99;99699.47;5111472;28;19920;-52
2021/06/07 11:20:54;;;;;;;;;;;;;;;30.42;36.73;99696.13;5110437;28;19919;-53
2021/06/07 11:23:21;;;;;;;;;;;;;;;30.66;36.35;99706.38;5111468;28;20340;-52
2021/06/07 11:25:53;;;;;;;;;;;;;;;30.78;36.34;99709.16;5111899;28;20006;-53
2021/06/07 11:28:39;;;;;;;;;;;;;;;30.72;36.48;99705.81;5111556;28;19912;-53
2021/06/07 11:31:24;;;;;;;;;;;;;;;30.64;36.61;99712.22;5111481;28;19912;-52
2021/06/07 11:33:59;;;;;;;;;;;;;;;30.64;38.02;99708.66;5111636;28;20392;-53
2021/06/07 11:36:37;;;;;;;;;;;;;;;30.59;38.52;99713.22;5111911;28;20003;-53
2021/06/07 11:39:02;;;;;;;;;;;;;;;30.50;40.69;99719.94;5111501;28;19912;-54
2021/06/07 11:41:37;;;;;;;;;;;;;;;30.40;40.83;99721.16;5111696;28;19934;-54
2021/06/07 11:44:02;;;;;;;;;;;;;;;30.21;41.81;99738.06;5110290;28;19961;-54
2021/06/07 11:46:31;;;;;;;;;;;;;;;29.87;42.74;99731.72;5111471;28;19911;-53
2021/06/07 11:49:09;;;;;;;;;;;;;;;29.75;42.89;99742.63;5111627;28;19994;-53
2021/06/07 11:51:35;;;;;;;;;;;;;;;29.65;43.21;99742.97;5111995;28;19950;-54
2021/06/07 11:54:00;;;;;;;;;;;;;;;29.51;43.25;99751.41;5112109;28;20001;-53
2021/06/07 11:56:25;;;;;;;;;;;;;;;29.26;44.67;99751.19;5103041;28;19916;-52
2021/06/07 11:58:51;;;;;;;;;;;;;;;28.85;45.91;99752.59;5090758;28;19919;-54
2021/06/07 12:01:16;;;;;;;;;;;;;;;28.83;46.04;99755.66;5090750;28;19916;-54
2021/06/07 12:03:45;;;;;;;;;;;;;;;28.81;46.73;99757.94;5090717;28;19912;-53
2021/06/07 12:06:10;;;;;;;;;;;;;;;28.81;47.26;99754.38;5090118;28;19916;-39
2021/06/07 12:08:35;;;;;;;;;;;;;;;28.76;47.19;99754.56;5089977;28;19919;-39
2021/06/07 12:11:02;;;;;;;;;;;;;;;28.60;48.23;99754.25;5089883;28;20018;-39
2021/06/07 12:13:27;;;;;;;;;;;;;;;28.46;49.10;99751.66;5088796;28;19944;-39
2021/06/07 12:15:56;;;;;;;;;;;;;;;28.28;49.96;99746.19;5090017;28;19916;-39
2021/06/07 12:18:41;;;;;;;;;;;;;;;28.19;49.41;99747.31;5089574;28;19927;-39
2021/06/07 12:21:09;;;;;;;;;;;;;;;28.00;49.09;99748.41;5089420;28;19912;-39
2021/06/07 12:23:40;;;;;;;;;;;;;;;28.13;49.23;99756.81;5109339;28;19912;-42
2021/06/07 12:29:25;;;;;;;;;;;;;;;26.98;52.52;99749.31;5110149;28;19945;-37
2021/06/07 12:32:02;;;;;;;;;;;;;;;26.22;55.17;99746.53;5109180;28;19912;-38
2021/06/07 12:34:28;;;;;;;;;;;;;;;25.21;55.90;99753.69;5108443;28;20319;-38
2021/06/07 12:36:53;;;;;;;;;;;;;;;25.30;55.80;99750.03;5109734;28;20391;-38
2021/06/07 12:39:18;;;;;;;;;;;;;;;25.80;54.90;99745.75;5109580;28;19973;-38
2021/06/07 12:41:45;;;;;;;;;;;;;;;26.19;54.20;99738.94;5109556;28;19931;-39
2021/06/07 12:44:10;;;;;;;;;;;;;;;26.42;53.00;99740.56;5097858;28;20324;-39
2021/06/07 12:46:45;;;;;;;;;;;;;;;26.10;53.70;99731.50;5089600;28;20003;-37
2021/06/07 12:49:20;;;;;;;;;;;;;;;26.44;52.18;99730.16;5089294;28;19919;-38